Time;durP1;ratioP1;P1;durP2;ratioP2;P2;SDS_P1;SDS_P2;PMS_P1;PMS_P2;Temp;Humidity;BMP_temperature;BMP_pressure;BME280_temperature;BME280_humidity;BME280_pressure;Samples;Min_cycle;Max_cycle;Signal;HPM_P1;HPM_P2
2022/06/03 00:01:58;;;;;;;;;;;;;;;20.21;79.82;99328.16;5031267;28;20859;-38
2022/06/03 00:04:30;;;;;;;;;;;;;;;20.58;78.30;99324.88;5034164;28;20378;-38
2022/06/03 00:07:11;;;;;;;;;;;;;;;20.29;78.73;99330.25;5028754;28;19917;-38
2022/06/03 00:09:54;;;;;;;;;;;;;;;19.77;80.68;99328.44;5036548;28;20051;-38
2022/06/03 00:12:20;;;;;;;;;;;;;;;19.62;83.73;99320.63;5029057;28;19925;-38
2022/06/03 00:14:55;;;;;;;;;;;;;;;20.18;82.40;99317.88;5034483;28;19932;-38
2022/06/03 00:17:27;;;;;;;;;;;;;;;20.04;83.30;99313.56;5029136;28;20976;-39
2022/06/03 00:19:58;;;;;;;;;;;;;;;19.94;81.82;99320.34;5029931;28;19960;-39
2022/06/03 00:22:35;;;;;;;;;;;;;;;20.26;80.80;99309.53;5010165;28;20378;-38
2022/06/03 00:25:11;;;;;;;;;;;;;;;19.82;83.15;99313.31;5015771;28;20112;-39
2022/06/03 00:27:36;;;;;;;;;;;;;;;19.95;82.22;99300.28;5015789;28;19920;-39
2022/06/03 00:30:24;;;;;;;;;;;;;;;20.01;82.64;99307.72;5035536;28;19932;-38
2022/06/03 00:33:06;;;;;;;;;;;;;;;19.74;84.07;99302.53;5022875;28;19951;-38
2022/06/03 00:35:47;;;;;;;;;;;;;;;19.79;83.22;99303.06;5014404;28;20788;-38
2022/06/03 00:38:12;;;;;;;;;;;;;;;19.84;82.58;99300.97;5030013;28;19953;-39
2022/06/03 00:40:56;;;;;;;;;;;;;;;20.07;81.55;99294.25;5030340;28;20000;-38
2022/06/03 00:43:28;;;;;;;;;;;;;;;19.94;82.35;99294.22;5019502;28;19924;-38
2022/06/03 00:45:53;;;;;;;;;;;;;;;19.85;81.61;99295.66;5028203;28;19921;-39
2022/06/03 00:48:21;;;;;;;;;;;;;;;19.83;81.54;99288.84;5031034;28;19921;-38
2022/06/03 00:50:55;;;;;;;;;;;;;;;19.91;81.46;99294.44;5032926;28;19921;-38
2022/06/03 00:53:24;;;;;;;;;;;;;;;19.83;81.64;99300.13;5012639;28;19917;-39
2022/06/03 00:56:14;;;;;;;;;;;;;;;19.92;81.83;99292.63;5029078;28;19920;-39
2022/06/03 00:58:43;;;;;;;;;;;;;;;19.50;83.26;99290.09;5012574;28;19925;-38
2022/06/03 01:01:15;;;;;;;;;;;;;;;19.95;81.44;99287.19;5031045;28;19932;-38
2022/06/03 01:03:47;;;;;;;;;;;;;;;19.65;84.06;99283.00;5012642;28;19920;-38
2022/06/03 01:06:31;;;;;;;;;;;;;;;19.74;82.92;99287.69;5027531;28;19942;-39
2022/06/03 01:08:59;;;;;;;;;;;;;;;19.61;82.52;99271.94;5025291;28;20745;-39
2022/06/03 01:11:30;;;;;;;;;;;;;;;18.86;86.33;99279.31;5032638;28;19994;-38
2022/06/03 01:14:01;;;;;;;;;;;;;;;19.08;86.59;99278.78;5028419;28;19925;-38
2022/06/03 01:16:55;;;;;;;;;;;;;;;19.18;86.66;99277.31;5032187;28;20009;-38
2022/06/03 01:19:33;;;;;;;;;;;;;;;18.56;85.08;99276.75;5014877;28;19916;-39
2022/06/03 01:22:36;;;;;;;;;;;;;;;18.72;88.45;99272.28;5026721;28;19952;-39
2022/06/03 01:25:21;;;;;;;;;;;;;;;18.87;86.26;99272.31;4954607;28;19918;-39
2022/06/03 01:27:50;;;;;;;;;;;;;;;19.23;86.39;99267.41;4953438;28;19969;-38
2022/06/03 01:30:19;;;;;;;;;;;;;;;19.45;84.01;99266.00;5000181;28;19950;-39
2022/06/03 01:32:44;;;;;;;;;;;;;;;19.55;84.01;99264.50;5011947;28;19920;-39
2022/06/03 01:35:15;;;;;;;;;;;;;;;19.45;83.75;99268.63;5035087;28;19982;-39
2022/06/03 01:37:41;;;;;;;;;;;;;;;19.22;85.98;99276.16;5029793;28;19917;-39
2022/06/03 01:40:21;;;;;;;;;;;;;;;19.40;84.86;99270.69;5033478;28;19928;-38
2022/06/03 01:42:49;;;;;;;;;;;;;;;19.30;85.92;99273.06;5004588;28;20384;-38
2022/06/03 01:45:35;;;;;;;;;;;;;;;19.29;84.60;99271.38;5029196;28;19975;-38
2022/06/03 01:48:00;;;;;;;;;;;;;;;18.59;87.35;99281.81;5012041;28;19921;-38
2022/06/03 01:50:44;;;;;;;;;;;;;;;18.96;86.97;99279.56;5032834;28;19943;-39
2022/06/03 01:53:09;;;;;;;;;;;;;;;18.66;88.28;99277.06;5029855;28;19925;-39
2022/06/03 01:55:47;;;;;;;;;;;;;;;19.01;86.88;99272.28;5030660;28;19928;-38
2022/06/03 01:58:18;;;;;;;;;;;;;;;19.30;84.46;99277.47;5028097;28;20891;-39
2022/06/03 02:00:44;;;;;;;;;;;;;;;19.19;84.38;99268.53;5031661;28;19948;-39
2022/06/03 02:03:09;;;;;;;;;;;;;;;18.87;84.85;99274.94;5007838;28;19921;-38
2022/06/03 02:05:45;;;;;;;;;;;;;;;18.54;87.65;99273.41;5030864;28;19974;-38
2022/06/03 02:08:29;;;;;;;;;;;;;;;19.14;86.33;99267.97;5016337;28;19921;-38
2022/06/03 02:11:12;;;;;;;;;;;;;;;19.32;85.05;99270.38;5032665;28;19999;-38
2022/06/03 02:13:56;;;;;;;;;;;;;;;19.31;84.98;99263.44;5030922;28;19925;-38
2022/06/03 02:16:39;;;;;;;;;;;;;;;19.34;84.23;99265.84;5028093;28;19949;-39
2022/06/03 02:19:22;;;;;;;;;;;;;;;18.68;85.64;99262.97;5014113;28;20567;-39
2022/06/03 02:22:06;;;;;;;;;;;;;;;18.94;86.29;99255.34;5028695;28;20011;-39
2022/06/03 02:24:34;;;;;;;;;;;;;;;18.96;85.76;99253.47;5032821;28;20463;-39
2022/06/03 02:27:06;;;;;;;;;;;;;;;18.87;86.66;99254.88;5030670;28;20221;-38
2022/06/03 02:32:49;;;;;;;;;;;;;;;18.73;88.63;99257.47;5035684;28;20075;-38
2022/06/03 02:35:14;;;;;;;;;;;;;;;18.92;87.01;99252.81;5029781;28;20401;-38
2022/06/03 02:37:48;;;;;;;;;;;;;;;18.71;86.91;99254.97;5032629;28;19946;-39
2022/06/03 02:40:29;;;;;;;;;;;;;;;18.92;86.31;99247.59;5025843;28;19943;-38
2022/06/03 02:42:55;;;;;;;;;;;;;;;18.79;86.31;99241.47;5009979;28;19925;-43
2022/06/03 02:45:26;;;;;;;;;;;;;;;18.68;86.69;99234.28;5030686;28;20452;-39
2022/06/03 02:48:01;;;;;;;;;;;;;;;18.57;87.83;99227.13;5025053;28;19928;-39
2022/06/03 02:50:40;;;;;;;;;;;;;;;18.45;88.04;99232.22;5029696;28;19925;-39
2022/06/03 02:53:21;;;;;;;;;;;;;;;18.12;91.65;99230.72;5009120;28;19921;-38
2022/06/03 02:55:46;;;;;;;;;;;;;;;18.22;91.43;99231.84;5033791;28;19968;-39
2022/06/03 02:58:18;;;;;;;;;;;;;;;18.46;88.80;99231.31;5030918;28;20035;-39
2022/06/03 03:00:46;;;;;;;;;;;;;;;18.16;89.32;99230.44;5029782;28;20405;-38
2022/06/03 03:03:14;;;;;;;;;;;;;;;18.28;89.12;99231.47;5034047;28;20238;-39
2022/06/03 03:05:42;;;;;;;;;;;;;;;18.60;87.29;99228.69;5033123;28;19936;-38
2022/06/03 03:08:17;;;;;;;;;;;;;;;18.52;87.27;99234.38;5031749;28;19974;-38
2022/06/03 03:11:01;;;;;;;;;;;;;;;18.46;87.98;99239.13;5032186;28;19924;-38
2022/06/03 03:13:45;;;;;;;;;;;;;;;18.57;86.89;99231.50;5032205;28;19921;-38
2022/06/03 03:16:21;;;;;;;;;;;;;;;18.47;87.09;99230.38;5032835;28;19925;-39
2022/06/03 03:19:07;;;;;;;;;;;;;;;18.54;86.97;99226.44;5034507;28;20756;-38
2022/06/03 03:21:38;;;;;;;;;;;;;;;18.59;86.96;99229.63;5031721;28;20015;-38
2022/06/03 03:24:32;;;;;;;;;;;;;;;18.17;87.66;99224.28;5035883;28;20399;-38
2022/06/03 03:27:03;;;;;;;;;;;;;;;18.64;86.72;99221.53;4960879;28;19922;-39
2022/06/03 03:29:48;;;;;;;;;;;;;;;18.10;88.03;99223.00;5031782;28;20015;-39
2022/06/03 03:32:32;;;;;;;;;;;;;;;18.36;87.25;99224.03;5020030;28;20290;-38
2022/06/03 03:35:16;;;;;;;;;;;;;;;18.71;87.78;99223.66;5031528;28;20493;-38
2022/06/03 03:37:50;;;;;;;;;;;;;;;18.80;86.52;99207.44;5036867;28;19921;-39
2022/06/03 03:40:25;;;;;;;;;;;;;;;18.81;86.50;99218.72;5035338;28;19917;-39
2022/06/03 03:42:50;;;;;;;;;;;;;;;18.62;84.72;99216.41;5031418;28;19994;-38
2022/06/03 03:45:30;;;;;;;;;;;;;;;18.80;86.20;99207.44;5033989;28;20900;-38
2022/06/03 03:48:08;;;;;;;;;;;;;;;18.88;86.71;99208.75;5017709;28;19921;-39
2022/06/03 03:50:52;;;;;;;;;;;;;;;18.90;87.60;99206.88;5035887;28;19970;-39
2022/06/03 03:53:17;;;;;;;;;;;;;;;19.08;87.24;99205.69;5037276;28;20685;-38
2022/06/03 03:55:42;;;;;;;;;;;;;;;19.12;87.15;99201.13;5031765;28;19990;-38
2022/06/03 03:58:21;;;;;;;;;;;;;;;18.92;86.19;99208.44;5036108;28;19925;-39
2022/06/03 04:00:59;;;;;;;;;;;;;;;19.16;87.46;99210.47;5016030;28;20544;-39
2022/06/03 04:03:27;;;;;;;;;;;;;;;19.34;86.63;99205.78;5029922;28;20011;-39
2022/06/03 04:06:01;;;;;;;;;;;;;;;19.43;86.85;99202.59;5034916;28;19991;-39
2022/06/03 04:08:43;;;;;;;;;;;;;;;19.49;85.24;99203.97;5035254;28;20336;-39
2022/06/03 04:11:26;;;;;;;;;;;;;;;19.38;85.88;99209.88;5012516;28;20012;-39
2022/06/03 04:14:11;;;;;;;;;;;;;;;19.57;86.01;99212.16;5029319;28;20018;-39
2022/06/03 04:16:55;;;;;;;;;;;;;;;19.80;85.58;99205.44;5031042;28;19928;-39
2022/06/03 04:19:43;;;;;;;;;;;;;;;19.02;84.49;99208.69;5034312;28;20012;-39
2022/06/03 04:22:19;;;;;;;;;;;;;;;19.54;87.33;99212.34;5028794;28;19928;-39
2022/06/03 04:24:59;;;;;;;;;;;;;;;19.93;84.00;99214.09;5013635;28;20270;-39
2022/06/03 04:27:34;;;;;;;;;;;;;;;20.28;86.01;99213.50;5030798;28;19935;-39
2022/06/03 04:30:06;;;;;;;;;;;;;;;20.51;84.05;99208.47;5034535;28;19932;-39
2022/06/03 04:32:37;;;;;;;;;;;;;;;20.40;84.40;99212.66;5031079;28;19917;-39
2022/06/03 04:35:21;;;;;;;;;;;;;;;20.33;85.67;99214.03;5038076;28;19979;-38
2022/06/03 04:38:04;;;;;;;;;;;;;;;20.50;85.75;99206.78;5038520;28;20011;-39
2022/06/03 04:40:35;;;;;;;;;;;;;;;20.38;86.75;99206.69;5041818;28;19925;-39
2022/06/03 04:43:19;;;;;;;;;;;;;;;20.63;87.33;99207.63;5029899;28;19984;-39
2022/06/03 04:45:50;;;;;;;;;;;;;;;20.89;86.35;99209.25;5031894;28;19916;-39
2022/06/03 04:48:24;;;;;;;;;;;;;;;20.96;85.61;99214.03;5029359;28;20003;-38
2022/06/03 04:51:08;;;;;;;;;;;;;;;20.71;85.31;99210.56;5034127;28;20370;-39
2022/06/03 04:53:53;;;;;;;;;;;;;;;20.71;86.43;99210.56;5040047;28;19932;-39
2022/06/03 04:56:37;;;;;;;;;;;;;;;21.25;83.08;99204.06;5031660;28;19916;-39
2022/06/03 04:59:21;;;;;;;;;;;;;;;21.44;82.72;99198.34;5032179;28;19928;-39
2022/06/03 05:02:01;;;;;;;;;;;;;;;21.25;82.65;99199.66;5034038;28;20015;-39
2022/06/03 05:04:45;;;;;;;;;;;;;;;21.47;81.00;99198.13;5037288;28;19958;-39
2022/06/03 05:07:13;;;;;;;;;;;;;;;21.59;81.88;99191.97;5038205;28;19917;-39
2022/06/03 05:09:38;;;;;;;;;;;;;;;21.84;81.59;99190.13;5038719;28;19967;-39
2022/06/03 05:12:42;;;;;;;;;;;;;;;21.72;82.71;99181.41;5031597;28;20027;-39
2022/06/03 05:15:07;;;;;;;;;;;;;;;21.64;80.88;99181.13;4997466;28;19980;-39
2022/06/03 05:17:50;;;;;;;;;;;;;;;20.96;81.01;99186.09;4997376;28;19917;-39
2022/06/03 05:20:22;;;;;;;;;;;;;;;20.82;81.86;99186.22;5021076;28;19917;-39
2022/06/03 05:23:03;;;;;;;;;;;;;;;21.33;80.21;99180.78;5013093;28;19917;-39
2022/06/03 05:25:31;;;;;;;;;;;;;;;21.35;82.69;99172.78;5031334;28;19917;-39
2022/06/03 05:28:10;;;;;;;;;;;;;;;20.78;83.50;99185.63;5034653;28;20362;-39
2022/06/03 05:30:39;;;;;;;;;;;;;;;21.82;80.81;99169.25;5015507;28;19917;-39
2022/06/03 05:33:19;;;;;;;;;;;;;;;21.24;82.22;99190.13;5031963;28;20318;-39
2022/06/03 05:35:59;;;;;;;;;;;;;;;21.82;81.49;99177.13;5034924;28;20392;-39
2022/06/03 05:38:30;;;;;;;;;;;;;;;22.19;79.41;99178.72;5034821;28;20003;-39
2022/06/03 05:41:05;;;;;;;;;;;;;;;22.62;76.76;99176.22;5015363;28;19962;-39
2022/06/03 05:43:36;;;;;;;;;;;;;;;22.77;77.70;99179.44;5030240;28;19928;-39
2022/06/03 05:46:04;;;;;;;;;;;;;;;22.03;80.53;99173.81;5026796;28;20329;-39
2022/06/03 05:48:41;;;;;;;;;;;;;;;22.28;81.88;99173.66;5031183;28;19924;-39
2022/06/03 05:51:06;;;;;;;;;;;;;;;22.89;80.37;99175.81;5030775;28;20365;-39
2022/06/03 05:53:31;;;;;;;;;;;;;;;23.12;77.75;99167.91;5033892;28;19924;-39
2022/06/03 05:56:15;;;;;;;;;;;;;;;22.87;80.43;99167.22;5028263;28;20405;-39
2022/06/03 05:58:59;;;;;;;;;;;;;;;23.43;80.34;99165.41;5028220;28;20336;-39
2022/06/03 06:01:37;;;;;;;;;;;;;;;23.36;78.34;99165.09;5034461;28;19996;-39
2022/06/03 06:04:03;;;;;;;;;;;;;;;23.53;78.10;99167.13;5015186;28;20011;-39
2022/06/03 06:06:34;;;;;;;;;;;;;;;23.69;78.68;99164.06;5032463;28;20335;-39
2022/06/03 06:09:11;;;;;;;;;;;;;;;23.82;79.89;99157.81;5017427;28;19917;-39
2022/06/03 06:11:55;;;;;;;;;;;;;;;23.53;82.84;99164.50;5034720;28;19924;-39
2022/06/03 06:14:20;;;;;;;;;;;;;;;23.94;80.14;99154.13;5034043;28;19925;-39
2022/06/03 06:16:45;;;;;;;;;;;;;;;24.18;77.60;99151.22;5031967;28;20475;-39
2022/06/03 06:19:14;;;;;;;;;;;;;;;23.35;81.04;99158.97;5005561;28;20351;-39
2022/06/03 06:21:42;;;;;;;;;;;;;;;22.97;84.49;99155.03;5030165;28;20036;-39
2022/06/03 06:24:07;;;;;;;;;;;;;;;22.50;85.72;99158.84;5029280;28;20007;-39
2022/06/03 06:26:42;;;;;;;;;;;;;;;22.64;84.74;99155.13;5033169;28;19969;-39
2022/06/03 06:29:17;;;;;;;;;;;;;;;21.69;88.40;99169.38;5016976;28;19920;-39
2022/06/03 06:31:45;;;;;;;;;;;;;;;23.76;83.03;99146.81;5039528;28;19917;-39
2022/06/03 06:34:15;;;;;;;;;;;;;;;22.16;89.45;99158.00;5038051;28;19925;-39
2022/06/03 06:36:47;;;;;;;;;;;;;;;23.01;86.76;99153.00;5021199;28;19943;-39
2022/06/03 06:39:18;;;;;;;;;;;;;;;23.83;84.96;99143.69;5019427;28;20545;-39
2022/06/03 06:41:50;;;;;;;;;;;;;;;22.28;88.26;99157.06;5035740;28;19916;-39
2022/06/03 06:44:34;;;;;;;;;;;;;;;22.04;90.16;99149.28;5018783;28;19917;-39
2022/06/03 06:47:25;;;;;;;;;;;;;;;23.41;83.81;99149.75;5037417;28;19928;-39
2022/06/03 06:50:14;;;;;;;;;;;;;;;22.37;89.47;99158.94;5034389;28;20424;-39
2022/06/03 06:53:05;;;;;;;;;;;;;;;24.53;82.47;99155.22;5020139;28;19944;-39
2022/06/03 06:55:34;;;;;;;;;;;;;;;24.51;84.83;99158.00;5035075;28;20540;-39
2022/06/03 06:58:01;;;;;;;;;;;;;;;24.73;83.11;99159.59;5038398;28;19982;-39
2022/06/03 07:00:29;;;;;;;;;;;;;;;23.46;85.21;99159.88;5039484;28;20035;-39
2022/06/03 07:03:04;;;;;;;;;;;;;;;22.78;94.21;99170.59;5037711;28;19927;-39
2022/06/03 07:05:32;;;;;;;;;;;;;;;23.95;88.08;99155.81;5016372;28;19927;-39
2022/06/03 07:08:06;;;;;;;;;;;;;;;22.93;88.96;99158.03;5018365;28;19917;-39
2022/06/03 07:10:38;;;;;;;;;;;;;;;23.97;88.21;99159.13;5023841;28;19917;-39
2022/06/03 07:13:03;;;;;;;;;;;;;;;24.41;86.08;99157.13;5035492;28;19917;-39
2022/06/03 07:15:41;;;;;;;;;;;;;;;25.12;84.72;99146.44;5035058;28;19928;-39
2022/06/03 07:21:16;;;;;;;;;;;;;;;25.14;84.94;99151.59;5023918;28;20018;-39
2022/06/03 07:23:48;;;;;;;;;;;;;;;25.34;80.76;99145.38;5037656;28;20607;-39
2022/06/03 07:26:18;;;;;;;;;;;;;;;24.07;86.15;99153.94;5019473;28;19916;-39
2022/06/03 07:28:48;;;;;;;;;;;;;;;24.87;83.37;99142.56;5016172;28;19923;-39
2022/06/03 07:31:20;;;;;;;;;;;;;;;25.43;81.28;99136.63;5017752;28;20607;-39
2022/06/03 07:33:55;;;;;;;;;;;;;;;25.83;83.18;99135.56;5034976;28;20695;-39
2022/06/03 07:36:29;;;;;;;;;;;;;;;26.44;78.07;99141.34;5037654;28;19921;-39
2022/06/03 07:38:55;;;;;;;;;;;;;;;26.78;74.94;99141.56;5020247;28;19917;-39
2022/06/03 07:41:32;;;;;;;;;;;;;;;26.25;77.47;99143.09;5015166;28;20534;-39
2022/06/03 07:44:02;;;;;;;;;;;;;;;26.40;77.44;99139.97;5015239;28;20032;-39
2022/06/03 07:46:37;;;;;;;;;;;;;;;25.96;78.84;99137.09;5016218;28;19916;-39
2022/06/03 07:49:03;;;;;;;;;;;;;;;26.61;76.48;99129.97;5033063;28;19917;-39
2022/06/03 07:51:33;;;;;;;;;;;;;;;26.10;76.37;99136.63;5019010;28;19917;-39
2022/06/03 07:54:04;;;;;;;;;;;;;;;27.10;74.61;99122.56;5017044;28;19925;-39
2022/06/03 07:56:31;;;;;;;;;;;;;;;27.74;72.85;99135.63;5020779;28;20353;-39
2022/06/03 07:58:58;;;;;;;;;;;;;;;26.82;68.27;99116.53;5035434;28;20377;-38
2022/06/03 08:01:26;;;;;;;;;;;;;;;26.50;64.66;99109.03;5016075;28;19917;-38
2022/06/03 08:03:52;;;;;;;;;;;;;;;25.56;70.65;99117.84;5033586;28;19971;-38
2022/06/03 08:06:24;;;;;;;;;;;;;;;26.42;63.95;99109.78;5032407;28;19916;-39
2022/06/03 08:11:33;;;;;;;;;;;;;;;24.91;63.96;99114.97;5033610;28;19959;-39
2022/06/03 08:13:59;;;;;;;;;;;;;;;27.48;55.58;99096.78;5031384;28;20395;-38
2022/06/03 08:16:25;;;;;;;;;;;;;;;25.31;65.40;99098.19;5028246;28;20023;-39
2022/06/03 08:18:50;;;;;;;;;;;;;;;26.11;62.38;99101.31;5033100;28;19917;-38
2022/06/03 08:21:15;;;;;;;;;;;;;;;25.36;55.31;99095.13;5016471;28;20382;-39
2022/06/03 08:23:40;;;;;;;;;;;;;;;25.53;52.85;99096.22;5032414;28;19924;-38
2022/06/03 08:26:13;;;;;;;;;;;;;;;26.66;56.71;99095.19;5035034;28;19970;-39
2022/06/03 08:28:39;;;;;;;;;;;;;;;26.02;52.86;99102.19;5017214;28;19966;-38
2022/06/03 08:31:05;;;;;;;;;;;;;;;26.02;50.77;99094.28;5013777;28;19921;-38
2022/06/03 08:33:31;;;;;;;;;;;;;;;26.50;52.52;99101.09;5010760;28;19916;-38
2022/06/03 08:35:56;;;;;;;;;;;;;;;26.82;47.94;99097.16;5033853;28;19917;-39
2022/06/03 08:38:25;;;;;;;;;;;;;;;26.73;47.70;99096.28;5031498;28;19917;-39
2022/06/03 08:41:09;;;;;;;;;;;;;;;26.48;49.31;99089.88;5014695;28;19921;-38
2022/06/03 08:43:53;;;;;;;;;;;;;;;26.86;52.33;99085.31;5027200;28;20205;-38
2022/06/03 08:46:20;;;;;;;;;;;;;;;26.40;50.87;99080.03;5025710;28;19917;-39
2022/06/03 08:48:45;;;;;;;;;;;;;;;27.64;50.33;99076.66;5011851;28;20018;-39
2022/06/03 08:51:40;;;;;;;;;;;;;;;25.73;51.37;99086.44;5026916;28;19956;-39
2022/06/03 08:54:16;;;;;;;;;;;;;;;27.54;53.07;99082.91;5018867;28;19931;-39
2022/06/03 08:56:41;;;;;;;;;;;;;;;27.28;48.45;99077.63;5031416;28;19917;-39
2022/06/03 08:59:12;;;;;;;;;;;;;;;26.00;50.26;99088.31;5032547;28;20661;-38
2022/06/03 09:01:38;;;;;;;;;;;;;;;26.39;52.58;99090.75;5013285;28;19982;-39
2022/06/03 09:04:25;;;;;;;;;;;;;;;27.20;53.34;99079.34;5009200;28;19917;-39
2022/06/03 09:06:56;;;;;;;;;;;;;;;26.38;51.23;99082.00;5030892;28;19929;-38
2022/06/03 09:09:24;;;;;;;;;;;;;;;26.43;51.56;99078.91;5028360;28;19924;-39
2022/06/03 09:12:08;;;;;;;;;;;;;;;28.40;46.56;99075.06;5011267;28;19916;-39
2022/06/03 09:14:34;;;;;;;;;;;;;;;28.43;46.71;99077.38;5015509;28;19921;-39
2022/06/03 09:17:07;;;;;;;;;;;;;;;27.32;47.07;99078.13;5014683;28;19921;-39
2022/06/03 09:19:40;;;;;;;;;;;;;;;26.52;52.64;99088.59;5015268;28;20159;-38
2022/06/03 09:22:11;;;;;;;;;;;;;;;27.65;48.06;99081.81;4996918;28;19917;-38
2022/06/03 09:24:40;;;;;;;;;;;;;;;26.76;47.76;99066.09;5013160;28;19917;-38
2022/06/03 09:27:06;;;;;;;;;;;;;;;28.18;46.83;99077.28;5013166;28;19924;-38
2022/06/03 09:29:31;;;;;;;;;;;;;;;25.97;50.26;99080.69;5036689;28;19921;-38
2022/06/03 09:31:58;;;;;;;;;;;;;;;28.03;43.54;99074.44;5032667;28;19927;-38
2022/06/03 09:34:34;;;;;;;;;;;;;;;28.06;45.00;99081.22;5029521;28;19932;-38
2022/06/03 09:36:59;;;;;;;;;;;;;;;27.47;45.67;99066.00;5032190;28;19920;-39
2022/06/03 09:39:25;;;;;;;;;;;;;;;26.14;46.76;99074.66;5011784;28;20494;-38
2022/06/03 09:41:53;;;;;;;;;;;;;;;28.17;46.15;99059.75;5014293;28;20007;-38
2022/06/03 09:44:19;;;;;;;;;;;;;;;26.35;49.78;99066.47;5033537;28;20555;-38
2022/06/03 09:46:45;;;;;;;;;;;;;;;27.58;46.09;99064.09;5012762;28;19924;-38
2022/06/03 09:49:10;;;;;;;;;;;;;;;29.22;46.91;99054.81;5033595;28;19920;-38
2022/06/03 09:51:59;;;;;;;;;;;;;;;28.38;43.76;99056.66;5010878;28;20020;-38
2022/06/03 09:54:26;;;;;;;;;;;;;;;27.95;49.97;99058.50;5013079;28;19924;-38
2022/06/03 09:56:52;;;;;;;;;;;;;;;27.81;46.27;99051.97;5010776;28;19917;-38
2022/06/03 09:59:19;;;;;;;;;;;;;;;28.02;44.79;99051.59;5015812;28;19928;-38
2022/06/03 10:01:44;;;;;;;;;;;;;;;27.91;47.22;99060.63;5009995;28;20454;-38
2022/06/03 10:04:09;;;;;;;;;;;;;;;28.80;46.27;99054.94;5013240;28;19970;-38
2022/06/03 10:06:46;;;;;;;;;;;;;;;28.74;43.79;99051.13;5007045;28;19923;-38
2022/06/03 10:14:44;;;;;;;;;;;;;;;27.32;44.72;99049.03;5035700;28;19927;-44
2022/06/03 10:17:10;;;;;;;;;;;;;;;28.11;45.99;99055.09;5017019;28;19921;-44
2022/06/03 10:19:35;;;;;;;;;;;;;;;27.37;44.48;99049.41;5017267;28;19988;-44
2022/06/03 10:22:00;;;;;;;;;;;;;;;26.96;48.32;99053.50;5030155;28;19917;-44
2022/06/03 10:24:30;;;;;;;;;;;;;;;28.51;43.35;99046.47;5011874;28;20634;-44
2022/06/03 10:26:57;;;;;;;;;;;;;;;29.28;43.50;99042.69;5033480;28;19917;-44
2022/06/03 10:29:25;;;;;;;;;;;;;;;27.91;42.93;99036.81;5012471;28;19917;-44
2022/06/03 10:31:52;;;;;;;;;;;;;;;29.10;42.24;99041.06;5029978;28;19921;-44
2022/06/03 10:34:20;;;;;;;;;;;;;;;28.71;41.89;99036.38;5031373;28;20036;-44
2022/06/03 10:36:46;;;;;;;;;;;;;;;28.41;41.22;99029.84;5033440;28;19917;-44
2022/06/03 10:39:15;;;;;;;;;;;;;;;29.05;41.74;99032.72;5028610;28;19935;-44
2022/06/03 10:41:43;;;;;;;;;;;;;;;28.38;41.93;99026.72;5026580;28;19920;-44
2022/06/03 10:44:11;;;;;;;;;;;;;;;29.80;39.54;99023.66;5033395;28;19917;-44
2022/06/03 10:46:36;;;;;;;;;;;;;;;29.04;41.64;99024.97;5015891;28;20649;-44
2022/06/03 10:49:09;;;;;;;;;;;;;;;28.87;40.58;99018.81;5029049;28;19916;-44
2022/06/03 11:02:44;;;;;;;;;;;;;;;30.54;40.41;99015.28;5027437;28;19939;-44
2022/06/03 11:05:23;;;;;;;;;;;;;;;30.74;44.46;99005.00;5028549;28;19921;-44
2022/06/03 11:08:02;;;;;;;;;;;;;;;30.93;38.63;98995.72;5013725;28;20421;-44
2022/06/03 11:10:29;;;;;;;;;;;;;;;29.18;42.10;98990.63;5029334;28;19927;-44
2022/06/03 11:12:58;;;;;;;;;;;;;;;28.75;45.07;99005.88;5013259;28;19916;-44
2022/06/03 11:15:26;;;;;;;;;;;;;;;29.76;47.56;99001.09;5034375;28;19960;-44
2022/06/03 11:17:51;;;;;;;;;;;;;;;28.12;44.29;98998.50;5031415;28;20282;-44
2022/06/03 11:20:18;;;;;;;;;;;;;;;27.57;46.27;99004.22;5031489;28;19968;-44
2022/06/03 11:22:45;;;;;;;;;;;;;;;29.50;45.07;98993.38;5026589;28;19923;-44
2022/06/03 11:25:10;;;;;;;;;;;;;;;29.66;44.04;99003.13;5012682;28;19939;-44
2022/06/03 11:27:39;;;;;;;;;;;;;;;29.18;43.81;98988.00;5029105;28;20291;-44
2022/06/03 11:30:06;;;;;;;;;;;;;;;28.55;45.61;98978.06;5029389;28;19960;-44
2022/06/03 11:32:32;;;;;;;;;;;;;;;28.45;45.11;98987.97;5012550;28;20504;-44
2022/06/03 11:35:02;;;;;;;;;;;;;;;29.47;44.31;98993.72;5013960;28;20021;-44
2022/06/03 11:37:40;;;;;;;;;;;;;;;30.60;44.84;98986.19;5017517;28;19931;-45
2022/06/03 11:40:15;;;;;;;;;;;;;;;28.67;44.52;99003.25;5009596;28;20247;-44
2022/06/03 11:43:06;;;;;;;;;;;;;;;29.06;46.59;98994.63;5012504;28;19963;-44
2022/06/03 11:45:43;;;;;;;;;;;;;;;30.00;43.63;98989.56;5027709;28;19921;-44
2022/06/03 11:48:11;;;;;;;;;;;;;;;28.59;45.33;98973.28;5030940;28;19921;-44
2022/06/03 11:50:36;;;;;;;;;;;;;;;30.48;42.25;98962.88;5030343;28;19920;-44
2022/06/03 11:53:01;;;;;;;;;;;;;;;30.62;45.62;98975.38;5034052;28;19924;-45
2022/06/03 11:55:27;;;;;;;;;;;;;;;29.79;42.68;98971.56;5032963;28;20432;-44
2022/06/03 11:57:57;;;;;;;;;;;;;;;30.66;42.00;98971.38;5013208;28;20812;-42
2022/06/03 12:00:22;;;;;;;;;;;;;;;30.14;42.92;98972.03;5013055;28;19916;-42
2022/06/03 12:02:54;;;;;;;;;;;;;;;31.47;42.48;98971.59;5015578;28;19927;-42
2022/06/03 12:05:21;;;;;;;;;;;;;;;29.55;43.00;98965.31;5035112;28;20505;-44
2022/06/03 12:08:05;;;;;;;;;;;;;;;29.55;44.81;98967.97;5017829;28;19921;-44
2022/06/03 12:10:36;;;;;;;;;;;;;;;28.92;44.76;98960.81;5017284;28;19925;-44
2022/06/03 12:13:22;;;;;;;;;;;;;;;29.29;48.06;98964.78;5034804;28;19963;-44
2022/06/03 12:15:53;;;;;;;;;;;;;;;30.32;42.69;98956.66;5030357;28;19932;-44
2022/06/03 12:18:27;;;;;;;;;;;;;;;30.41;43.60;98949.47;5033087;28;19970;-44
2022/06/03 12:20:55;;;;;;;;;;;;;;;30.47;39.55;98953.22;5033100;28;19925;-44
2022/06/03 12:23:20;;;;;;;;;;;;;;;31.67;41.59;98950.56;5030873;28;19921;-44
2022/06/03 12:25:48;;;;;;;;;;;;;;;31.07;43.95;98949.75;5032396;28;19921;-44
2022/06/03 12:28:19;;;;;;;;;;;;;;;29.48;42.26;98948.44;5028254;28;20386;-44
2022/06/03 12:30:44;;;;;;;;;;;;;;;29.90;44.86;98944.63;5014936;28;19917;-43
2022/06/03 12:33:17;;;;;;;;;;;;;;;29.79;44.16;98937.06;5034333;28;19929;-44
2022/06/03 12:35:43;;;;;;;;;;;;;;;30.18;45.82;98938.81;5015582;28;19921;-44
2022/06/03 12:38:17;;;;;;;;;;;;;;;31.19;40.17;98937.63;5030057;28;19928;-44
2022/06/03 12:40:42;;;;;;;;;;;;;;;31.63;42.38;98936.78;5032175;28;19928;-44
2022/06/03 12:43:24;;;;;;;;;;;;;;;30.27;42.88;98932.47;5026032;28;19917;-44
2022/06/03 12:45:58;;;;;;;;;;;;;;;30.23;47.09;98947.06;5013189;28;19969;-42
2022/06/03 12:48:47;;;;;;;;;;;;;;;30.71;41.34;98942.41;5029201;28;19921;-42
2022/06/03 12:51:18;;;;;;;;;;;;;;;30.75;40.22;98946.34;5013580;28;19917;-41
2022/06/03 12:53:44;;;;;;;;;;;;;;;30.91;39.83;98941.94;5023688;28;20026;-42
2022/06/03 12:56:28;;;;;;;;;;;;;;;30.99;40.32;98940.00;5012395;28;20390;-44
2022/06/03 12:58:58;;;;;;;;;;;;;;;31.53;41.16;98938.91;5025314;28;19967;-44
2022/06/03 13:01:30;;;;;;;;;;;;;;;32.40;39.12;98932.69;5010615;28;19943;-44
2022/06/03 13:03:58;;;;;;;;;;;;;;;31.28;40.40;98938.38;5031571;28;19924;-44
2022/06/03 13:06:27;;;;;;;;;;;;;;;31.42;40.16;98936.72;5026024;28;20016;-44
2022/06/03 13:11:43;;;;;;;;;;;;;;;30.90;39.21;98929.63;5031231;28;19969;-44
2022/06/03 13:14:17;;;;;;;;;;;;;;;31.74;39.44;98924.84;5029072;28;20059;-44
2022/06/03 13:16:43;;;;;;;;;;;;;;;31.81;40.91;98927.56;5020490;28;19940;-44
2022/06/03 13:19:11;;;;;;;;;;;;;;;30.35;41.96;98928.91;5008906;28;19924;-44
2022/06/03 13:21:49;;;;;;;;;;;;;;;30.92;41.41;98932.94;5024286;28;19925;-44
2022/06/03 13:24:41;;;;;;;;;;;;;;;31.31;38.87;98929.19;5030163;28;19950;-44
2022/06/03 13:27:25;;;;;;;;;;;;;;;31.31;40.81;98927.34;5022109;28;19991;-44
2022/06/03 13:29:50;;;;;;;;;;;;;;;32.41;39.92;98918.38;5027294;28;20354;-44
2022/06/03 13:32:15;;;;;;;;;;;;;;;32.20;37.19;98919.19;5029131;28;20094;-44
2022/06/03 13:34:41;;;;;;;;;;;;;;;31.63;40.09;98934.13;5029293;28;19932;-44
2022/06/03 13:37:22;;;;;;;;;;;;;;;31.50;37.53;98922.47;5004646;28;19924;-42
2022/06/03 13:39:50;;;;;;;;;;;;;;;31.99;38.55;98932.50;5029521;28;19924;-44
2022/06/03 13:44:58;;;;;;;;;;;;;;;30.80;38.99;98925.38;5027686;28;19932;-44
2022/06/03 13:47:25;;;;;;;;;;;;;;;31.99;38.69;98920.00;5038731;28;20321;-44
2022/06/03 13:50:03;;;;;;;;;;;;;;;31.46;37.60;98925.53;5013586;28;19943;-44